<?xml version="1.0" encoding="UTF-8" standalone="no" ?>
<gpx version="1.1" creator="Visorando" xmlns:xsi="http://www.w3.org/2001/XMLSchema-instance" xmlns="http://www.topografix.com/GPX/1/1" xsi:schemaLocation="http://www.topografix.com/GPX/1/1 http://www.topografix.com/GPX/1/1/gpx.xsd">
<metadata>
  <name>Randonnée du 12/01/2026 à 08:56</name>
  <link href="https://www.visorando.com/randonnee-90290727/">
    <text>https://www.visorando.com/randonnee-90290727/</text>
  </link>
</metadata><wpt lat="43.229522" lon="-1.503218">
  <ele>576</ele>
  <time>2026-01-12T07:56:37.000Z</time>
  <name>Point de passage 1</name>
  <type>GENERIC</type>
</wpt><wpt lat="43.210726" lon="-1.52126">
  <ele>740</ele>
  <time>2026-01-12T08:53:01.000Z</time>
  <name>Point de passage 2</name>
  <type>GENERIC</type>
</wpt><wpt lat="43.202055" lon="-1.533785">
  <ele>827</ele>
  <time>2026-01-12T09:19:30.000Z</time>
  <name>Point de passage 3</name>
  <type>GENERIC</type>
</wpt><wpt lat="43.184926" lon="-1.528478">
  <ele>821</ele>
  <time>2026-01-12T10:09:22.000Z</time>
  <name>Point de passage 4</name>
  <type>GENERIC</type>
</wpt><wpt lat="43.187242" lon="-1.53099">
  <ele>745</ele>
  <time>2026-01-12T10:38:27.000Z</time>
  <name>Point de passage 5</name>
  <type>GENERIC</type>
</wpt><wpt lat="43.198863" lon="-1.533471">
  <ele>790</ele>
  <time>2026-01-12T10:59:41.000Z</time>
  <name>Point de passage 6</name>
  <type>GENERIC</type>
</wpt><wpt lat="43.200076" lon="-1.529498">
  <ele>771</ele>
  <time>2026-01-12T11:05:07.000Z</time>
  <name>Point de passage 7</name>
  <type>GENERIC</type>
</wpt><wpt lat="43.213145" lon="-1.509003">
  <ele>757</ele>
  <time>2026-01-12T12:11:45.000Z</time>
  <name>Point de passage 8</name>
  <type>GENERIC</type>
</wpt><wpt lat="43.220462" lon="-1.507308">
  <ele>933</ele>
  <time>2026-01-12T12:36:04.000Z</time>
  <name>Point de passage 9</name>
  <type>GENERIC</type>
</wpt><wpt lat="43.229436" lon="-1.503405">
  <ele>579</ele>
  <time>2026-01-12T13:19:20.000Z</time>
  <name>Point de passage 10</name>
  <type>GENERIC</type>
</wpt><trk>
  <name>Randonnée du 12/01/2026 à 08:56</name>
  <trkseg>
    <trkpt lat="43.229522" lon="-1.503218">
      <ele>576</ele>
      <time>2026-01-12T07:56:37.000Z</time>
    </trkpt>
    <trkpt lat="43.229367" lon="-1.503451">
      <ele>577</ele>
      <time>2026-01-12T08:03:23.000Z</time>
    </trkpt>
    <trkpt lat="43.229221" lon="-1.503698">
      <ele>581</ele>
      <time>2026-01-12T08:03:47.000Z</time>
    </trkpt>
    <trkpt lat="43.229085" lon="-1.50395">
      <ele>585</ele>
      <time>2026-01-12T08:04:11.000Z</time>
    </trkpt>
    <trkpt lat="43.228969" lon="-1.504222">
      <ele>585</ele>
      <time>2026-01-12T08:04:34.000Z</time>
    </trkpt>
    <trkpt lat="43.22885" lon="-1.504492">
      <ele>584</ele>
      <time>2026-01-12T08:04:57.000Z</time>
    </trkpt>
    <trkpt lat="43.228677" lon="-1.504705">
      <ele>586</ele>
      <time>2026-01-12T08:05:20.000Z</time>
    </trkpt>
    <trkpt lat="43.22851" lon="-1.504922">
      <ele>588</ele>
      <time>2026-01-12T08:05:44.000Z</time>
    </trkpt>
    <trkpt lat="43.228335" lon="-1.505131">
      <ele>590</ele>
      <time>2026-01-12T08:06:07.000Z</time>
    </trkpt>
    <trkpt lat="43.228151" lon="-1.50531">
      <ele>592</ele>
      <time>2026-01-12T08:06:32.000Z</time>
    </trkpt>
    <trkpt lat="43.227988" lon="-1.505541">
      <ele>596</ele>
      <time>2026-01-12T08:06:59.000Z</time>
    </trkpt>
    <trkpt lat="43.227845" lon="-1.505783">
      <ele>600</ele>
      <time>2026-01-12T08:07:25.000Z</time>
    </trkpt>
    <trkpt lat="43.227702" lon="-1.506031">
      <ele>601</ele>
      <time>2026-01-12T08:07:52.000Z</time>
    </trkpt>
    <trkpt lat="43.227519" lon="-1.506213">
      <ele>606</ele>
      <time>2026-01-12T08:08:17.000Z</time>
    </trkpt>
    <trkpt lat="43.227414" lon="-1.506489">
      <ele>608</ele>
      <time>2026-01-12T08:08:43.000Z</time>
    </trkpt>
    <trkpt lat="43.227249" lon="-1.506716">
      <ele>612</ele>
      <time>2026-01-12T08:09:07.000Z</time>
    </trkpt>
    <trkpt lat="43.227058" lon="-1.506894">
      <ele>614</ele>
      <time>2026-01-12T08:09:31.000Z</time>
    </trkpt>
    <trkpt lat="43.226877" lon="-1.507081">
      <ele>615</ele>
      <time>2026-01-12T08:09:53.000Z</time>
    </trkpt>
    <trkpt lat="43.226688" lon="-1.507261">
      <ele>617</ele>
      <time>2026-01-12T08:10:25.000Z</time>
    </trkpt>
    <trkpt lat="43.226556" lon="-1.507519">
      <ele>620</ele>
      <time>2026-01-12T08:10:49.000Z</time>
    </trkpt>
    <trkpt lat="43.226398" lon="-1.507748">
      <ele>625</ele>
      <time>2026-01-12T08:11:13.000Z</time>
    </trkpt>
    <trkpt lat="43.226257" lon="-1.507997">
      <ele>627</ele>
      <time>2026-01-12T08:11:37.000Z</time>
    </trkpt>
    <trkpt lat="43.226097" lon="-1.508215">
      <ele>630</ele>
      <time>2026-01-12T08:12:00.000Z</time>
    </trkpt>
    <trkpt lat="43.225921" lon="-1.508423">
      <ele>634</ele>
      <time>2026-01-12T08:12:27.000Z</time>
    </trkpt>
    <trkpt lat="43.225781" lon="-1.508666">
      <ele>638</ele>
      <time>2026-01-12T08:12:53.000Z</time>
    </trkpt>
    <trkpt lat="43.225634" lon="-1.508903">
      <ele>643</ele>
      <time>2026-01-12T08:13:21.000Z</time>
    </trkpt>
    <trkpt lat="43.225552" lon="-1.509194">
      <ele>646</ele>
      <time>2026-01-12T08:13:44.000Z</time>
    </trkpt>
    <trkpt lat="43.22545" lon="-1.509479">
      <ele>649</ele>
      <time>2026-01-12T08:14:10.000Z</time>
    </trkpt>
    <trkpt lat="43.225338" lon="-1.509752">
      <ele>652</ele>
      <time>2026-01-12T08:14:34.000Z</time>
    </trkpt>
    <trkpt lat="43.225241" lon="-1.51004">
      <ele>651</ele>
      <time>2026-01-12T08:14:58.000Z</time>
    </trkpt>
    <trkpt lat="43.225117" lon="-1.510304">
      <ele>652</ele>
      <time>2026-01-12T08:15:19.000Z</time>
    </trkpt>
    <trkpt lat="43.224992" lon="-1.510563">
      <ele>656</ele>
      <time>2026-01-12T08:15:40.000Z</time>
    </trkpt>
    <trkpt lat="43.224907" lon="-1.510851">
      <ele>658</ele>
      <time>2026-01-12T08:16:02.000Z</time>
    </trkpt>
    <trkpt lat="43.224838" lon="-1.511153">
      <ele>658</ele>
      <time>2026-01-12T08:16:22.000Z</time>
    </trkpt>
    <trkpt lat="43.224805" lon="-1.511463">
      <ele>660</ele>
      <time>2026-01-12T08:16:43.000Z</time>
    </trkpt>
    <trkpt lat="43.224725" lon="-1.511753">
      <ele>661</ele>
      <time>2026-01-12T08:18:55.000Z</time>
    </trkpt>
    <trkpt lat="43.224556" lon="-1.511957">
      <ele>669</ele>
      <time>2026-01-12T08:19:19.000Z</time>
    </trkpt>
    <trkpt lat="43.224426" lon="-1.512213">
      <ele>681</ele>
      <time>2026-01-12T08:19:44.000Z</time>
    </trkpt>
    <trkpt lat="43.224238" lon="-1.512393">
      <ele>676</ele>
      <time>2026-01-12T08:20:14.000Z</time>
    </trkpt>
    <trkpt lat="43.224016" lon="-1.512334">
      <ele>681</ele>
      <time>2026-01-12T08:20:41.000Z</time>
    </trkpt>
    <trkpt lat="43.223801" lon="-1.512221">
      <ele>689</ele>
      <time>2026-01-12T08:21:07.000Z</time>
    </trkpt>
    <trkpt lat="43.2236" lon="-1.51207">
      <ele>692</ele>
      <time>2026-01-12T08:21:33.000Z</time>
    </trkpt>
    <trkpt lat="43.2234" lon="-1.511911">
      <ele>699</ele>
      <time>2026-01-12T08:22:04.000Z</time>
    </trkpt>
    <trkpt lat="43.223178" lon="-1.511837">
      <ele>702</ele>
      <time>2026-01-12T08:22:31.000Z</time>
    </trkpt>
    <trkpt lat="43.222968" lon="-1.511966">
      <ele>709</ele>
      <time>2026-01-12T08:22:51.000Z</time>
    </trkpt>
    <trkpt lat="43.222739" lon="-1.512001">
      <ele>711</ele>
      <time>2026-01-12T08:23:15.000Z</time>
    </trkpt>
    <trkpt lat="43.222512" lon="-1.512017">
      <ele>711</ele>
      <time>2026-01-12T08:23:40.000Z</time>
    </trkpt>
    <trkpt lat="43.222284" lon="-1.512056">
      <ele>713</ele>
      <time>2026-01-12T08:24:04.000Z</time>
    </trkpt>
    <trkpt lat="43.222052" lon="-1.512069">
      <ele>714</ele>
      <time>2026-01-12T08:24:28.000Z</time>
    </trkpt>
    <trkpt lat="43.221819" lon="-1.512098">
      <ele>715</ele>
      <time>2026-01-12T08:24:49.000Z</time>
    </trkpt>
    <trkpt lat="43.221593" lon="-1.51215">
      <ele>717</ele>
      <time>2026-01-12T08:25:10.000Z</time>
    </trkpt>
    <trkpt lat="43.221364" lon="-1.512197">
      <ele>718</ele>
      <time>2026-01-12T08:25:33.000Z</time>
    </trkpt>
    <trkpt lat="43.221136" lon="-1.512172">
      <ele>718</ele>
      <time>2026-01-12T08:25:57.000Z</time>
    </trkpt>
    <trkpt lat="43.220905" lon="-1.512164">
      <ele>722</ele>
      <time>2026-01-12T08:26:21.000Z</time>
    </trkpt>
    <trkpt lat="43.220674" lon="-1.512183">
      <ele>726</ele>
      <time>2026-01-12T08:26:46.000Z</time>
    </trkpt>
    <trkpt lat="43.220442" lon="-1.512182">
      <ele>733</ele>
      <time>2026-01-12T08:27:10.000Z</time>
    </trkpt>
    <trkpt lat="43.220216" lon="-1.512136">
      <ele>738</ele>
      <time>2026-01-12T08:27:37.000Z</time>
    </trkpt>
    <trkpt lat="43.219991" lon="-1.512145">
      <ele>737</ele>
      <time>2026-01-12T08:28:01.000Z</time>
    </trkpt>
    <trkpt lat="43.21978" lon="-1.512289">
      <ele>739</ele>
      <time>2026-01-12T08:28:28.000Z</time>
    </trkpt>
    <trkpt lat="43.219558" lon="-1.512211">
      <ele>744</ele>
      <time>2026-01-12T08:29:06.000Z</time>
    </trkpt>
    <trkpt lat="43.21946" lon="-1.512501">
      <ele>746</ele>
      <time>2026-01-12T08:29:37.000Z</time>
    </trkpt>
    <trkpt lat="43.219496" lon="-1.51282">
      <ele>745</ele>
      <time>2026-01-12T08:30:08.000Z</time>
    </trkpt>
    <trkpt lat="43.219493" lon="-1.513132">
      <ele>742</ele>
      <time>2026-01-12T08:30:35.000Z</time>
    </trkpt>
    <trkpt lat="43.219564" lon="-1.513439">
      <ele>740</ele>
      <time>2026-01-12T08:30:59.000Z</time>
    </trkpt>
    <trkpt lat="43.219587" lon="-1.513746">
      <ele>737</ele>
      <time>2026-01-12T08:31:24.000Z</time>
    </trkpt>
    <trkpt lat="43.219629" lon="-1.514058">
      <ele>737</ele>
      <time>2026-01-12T08:31:47.000Z</time>
    </trkpt>
    <trkpt lat="43.219755" lon="-1.514321">
      <ele>739</ele>
      <time>2026-01-12T08:32:07.000Z</time>
    </trkpt>
    <trkpt lat="43.219861" lon="-1.514602">
      <ele>739</ele>
      <time>2026-01-12T08:32:29.000Z</time>
    </trkpt>
    <trkpt lat="43.219919" lon="-1.514907">
      <ele>742</ele>
      <time>2026-01-12T08:32:52.000Z</time>
    </trkpt>
    <trkpt lat="43.219917" lon="-1.515225">
      <ele>742</ele>
      <time>2026-01-12T08:33:17.000Z</time>
    </trkpt>
    <trkpt lat="43.219923" lon="-1.515544">
      <ele>745</ele>
      <time>2026-01-12T08:33:39.000Z</time>
    </trkpt>
    <trkpt lat="43.219877" lon="-1.515853">
      <ele>746</ele>
      <time>2026-01-12T08:36:10.000Z</time>
    </trkpt>
    <trkpt lat="43.219753" lon="-1.516122">
      <ele>746</ele>
      <time>2026-01-12T08:36:32.000Z</time>
    </trkpt>
    <trkpt lat="43.219591" lon="-1.51635">
      <ele>744</ele>
      <time>2026-01-12T08:36:53.000Z</time>
    </trkpt>
    <trkpt lat="43.219393" lon="-1.516516">
      <ele>740</ele>
      <time>2026-01-12T08:37:14.000Z</time>
    </trkpt>
    <trkpt lat="43.219159" lon="-1.516517">
      <ele>735</ele>
      <time>2026-01-12T08:37:36.000Z</time>
    </trkpt>
    <trkpt lat="43.21893" lon="-1.516461">
      <ele>734</ele>
      <time>2026-01-12T08:37:56.000Z</time>
    </trkpt>
    <trkpt lat="43.21871" lon="-1.516352">
      <ele>733</ele>
      <time>2026-01-12T08:38:16.000Z</time>
    </trkpt>
    <trkpt lat="43.218497" lon="-1.516241">
      <ele>732</ele>
      <time>2026-01-12T08:38:35.000Z</time>
    </trkpt>
    <trkpt lat="43.218279" lon="-1.516148">
      <ele>731</ele>
      <time>2026-01-12T08:38:54.000Z</time>
    </trkpt>
    <trkpt lat="43.218053" lon="-1.51607">
      <ele>731</ele>
      <time>2026-01-12T08:39:19.000Z</time>
    </trkpt>
    <trkpt lat="43.217826" lon="-1.515989">
      <ele>728</ele>
      <time>2026-01-12T08:39:40.000Z</time>
    </trkpt>
    <trkpt lat="43.217604" lon="-1.515906">
      <ele>729</ele>
      <time>2026-01-12T08:39:59.000Z</time>
    </trkpt>
    <trkpt lat="43.217374" lon="-1.515856">
      <ele>730</ele>
      <time>2026-01-12T08:40:21.000Z</time>
    </trkpt>
    <trkpt lat="43.217149" lon="-1.515791">
      <ele>730</ele>
      <time>2026-01-12T08:40:44.000Z</time>
    </trkpt>
    <trkpt lat="43.216992" lon="-1.516011">
      <ele>731</ele>
      <time>2026-01-12T08:41:04.000Z</time>
    </trkpt>
    <trkpt lat="43.216935" lon="-1.516309">
      <ele>730</ele>
      <time>2026-01-12T08:41:32.000Z</time>
    </trkpt>
    <trkpt lat="43.216772" lon="-1.516521">
      <ele>731</ele>
      <time>2026-01-12T08:41:53.000Z</time>
    </trkpt>
    <trkpt lat="43.216633" lon="-1.516768">
      <ele>737</ele>
      <time>2026-01-12T08:42:21.000Z</time>
    </trkpt>
    <trkpt lat="43.21652" lon="-1.517034">
      <ele>736</ele>
      <time>2026-01-12T08:42:44.000Z</time>
    </trkpt>
    <trkpt lat="43.216416" lon="-1.51731">
      <ele>734</ele>
      <time>2026-01-12T08:43:04.000Z</time>
    </trkpt>
    <trkpt lat="43.21631" lon="-1.517596">
      <ele>732</ele>
      <time>2026-01-12T08:43:27.000Z</time>
    </trkpt>
    <trkpt lat="43.216142" lon="-1.517802">
      <ele>738</ele>
      <time>2026-01-12T08:43:47.000Z</time>
    </trkpt>
    <trkpt lat="43.215941" lon="-1.517967">
      <ele>738</ele>
      <time>2026-01-12T08:44:08.000Z</time>
    </trkpt>
    <trkpt lat="43.215715" lon="-1.518067">
      <ele>736</ele>
      <time>2026-01-12T08:44:29.000Z</time>
    </trkpt>
    <trkpt lat="43.215479" lon="-1.518103">
      <ele>736</ele>
      <time>2026-01-12T08:44:52.000Z</time>
    </trkpt>
    <trkpt lat="43.215252" lon="-1.51812">
      <ele>740</ele>
      <time>2026-01-12T08:45:16.000Z</time>
    </trkpt>
    <trkpt lat="43.215025" lon="-1.518205">
      <ele>745</ele>
      <time>2026-01-12T08:45:36.000Z</time>
    </trkpt>
    <trkpt lat="43.214851" lon="-1.51842">
      <ele>743</ele>
      <time>2026-01-12T08:45:59.000Z</time>
    </trkpt>
    <trkpt lat="43.214671" lon="-1.51863">
      <ele>742</ele>
      <time>2026-01-12T08:46:19.000Z</time>
    </trkpt>
    <trkpt lat="43.214481" lon="-1.518808">
      <ele>741</ele>
      <time>2026-01-12T08:46:39.000Z</time>
    </trkpt>
    <trkpt lat="43.214284" lon="-1.518965">
      <ele>740</ele>
      <time>2026-01-12T08:46:59.000Z</time>
    </trkpt>
    <trkpt lat="43.214061" lon="-1.519065">
      <ele>744</ele>
      <time>2026-01-12T08:47:20.000Z</time>
    </trkpt>
    <trkpt lat="43.213843" lon="-1.519166">
      <ele>743</ele>
      <time>2026-01-12T08:47:41.000Z</time>
    </trkpt>
    <trkpt lat="43.213632" lon="-1.519295">
      <ele>743</ele>
      <time>2026-01-12T08:48:02.000Z</time>
    </trkpt>
    <trkpt lat="43.21343" lon="-1.519455">
      <ele>745</ele>
      <time>2026-01-12T08:48:23.000Z</time>
    </trkpt>
    <trkpt lat="43.213234" lon="-1.519638">
      <ele>744</ele>
      <time>2026-01-12T08:48:44.000Z</time>
    </trkpt>
    <trkpt lat="43.213061" lon="-1.519837">
      <ele>745</ele>
      <time>2026-01-12T08:49:03.000Z</time>
    </trkpt>
    <trkpt lat="43.2129" lon="-1.520076">
      <ele>745</ele>
      <time>2026-01-12T08:49:23.000Z</time>
    </trkpt>
    <trkpt lat="43.212768" lon="-1.52033">
      <ele>744</ele>
      <time>2026-01-12T08:49:41.000Z</time>
    </trkpt>
    <trkpt lat="43.212638" lon="-1.520582">
      <ele>747</ele>
      <time>2026-01-12T08:50:01.000Z</time>
    </trkpt>
    <trkpt lat="43.212495" lon="-1.520836">
      <ele>747</ele>
      <time>2026-01-12T08:50:22.000Z</time>
    </trkpt>
    <trkpt lat="43.212315" lon="-1.521037">
      <ele>745</ele>
      <time>2026-01-12T08:50:42.000Z</time>
    </trkpt>
    <trkpt lat="43.212098" lon="-1.521172">
      <ele>745</ele>
      <time>2026-01-12T08:51:02.000Z</time>
    </trkpt>
    <trkpt lat="43.211868" lon="-1.521197">
      <ele>744</ele>
      <time>2026-01-12T08:51:22.000Z</time>
    </trkpt>
    <trkpt lat="43.21164" lon="-1.521255">
      <ele>742</ele>
      <time>2026-01-12T08:51:42.000Z</time>
    </trkpt>
    <trkpt lat="43.211415" lon="-1.52124">
      <ele>741</ele>
      <time>2026-01-12T08:52:01.000Z</time>
    </trkpt>
    <trkpt lat="43.211188" lon="-1.52121">
      <ele>740</ele>
      <time>2026-01-12T08:52:20.000Z</time>
    </trkpt>
    <trkpt lat="43.210956" lon="-1.521233">
      <ele>740</ele>
      <time>2026-01-12T08:52:40.000Z</time>
    </trkpt>
    <trkpt lat="43.210726" lon="-1.52126">
      <ele>740</ele>
      <time>2026-01-12T08:53:01.000Z</time>
    </trkpt>
    <trkpt lat="43.210524" lon="-1.52142">
      <ele>743</ele>
      <time>2026-01-12T08:54:57.000Z</time>
    </trkpt>
    <trkpt lat="43.210333" lon="-1.521589">
      <ele>743</ele>
      <time>2026-01-12T08:55:19.000Z</time>
    </trkpt>
    <trkpt lat="43.21019" lon="-1.521842">
      <ele>743</ele>
      <time>2026-01-12T08:55:40.000Z</time>
    </trkpt>
    <trkpt lat="43.210031" lon="-1.522077">
      <ele>743</ele>
      <time>2026-01-12T08:55:59.000Z</time>
    </trkpt>
    <trkpt lat="43.209885" lon="-1.522324">
      <ele>742</ele>
      <time>2026-01-12T08:56:19.000Z</time>
    </trkpt>
    <trkpt lat="43.209747" lon="-1.522569">
      <ele>744</ele>
      <time>2026-01-12T08:56:39.000Z</time>
    </trkpt>
    <trkpt lat="43.20965" lon="-1.522856">
      <ele>745</ele>
      <time>2026-01-12T08:57:03.000Z</time>
    </trkpt>
    <trkpt lat="43.20956" lon="-1.523159">
      <ele>746</ele>
      <time>2026-01-12T08:57:26.000Z</time>
    </trkpt>
    <trkpt lat="43.209487" lon="-1.523466">
      <ele>748</ele>
      <time>2026-01-12T08:57:44.000Z</time>
    </trkpt>
    <trkpt lat="43.209386" lon="-1.523757">
      <ele>749</ele>
      <time>2026-01-12T08:58:04.000Z</time>
    </trkpt>
    <trkpt lat="43.209238" lon="-1.523996">
      <ele>750</ele>
      <time>2026-01-12T08:58:23.000Z</time>
    </trkpt>
    <trkpt lat="43.209071" lon="-1.524226">
      <ele>751</ele>
      <time>2026-01-12T08:58:42.000Z</time>
    </trkpt>
    <trkpt lat="43.208937" lon="-1.524479">
      <ele>752</ele>
      <time>2026-01-12T08:59:00.000Z</time>
    </trkpt>
    <trkpt lat="43.208804" lon="-1.524731">
      <ele>751</ele>
      <time>2026-01-12T08:59:19.000Z</time>
    </trkpt>
    <trkpt lat="43.208661" lon="-1.524985">
      <ele>751</ele>
      <time>2026-01-12T08:59:38.000Z</time>
    </trkpt>
    <trkpt lat="43.208525" lon="-1.525236">
      <ele>752</ele>
      <time>2026-01-12T08:59:57.000Z</time>
    </trkpt>
    <trkpt lat="43.208395" lon="-1.525504">
      <ele>754</ele>
      <time>2026-01-12T09:00:17.000Z</time>
    </trkpt>
    <trkpt lat="43.208232" lon="-1.525731">
      <ele>753</ele>
      <time>2026-01-12T09:00:37.000Z</time>
    </trkpt>
    <trkpt lat="43.208067" lon="-1.525962">
      <ele>753</ele>
      <time>2026-01-12T09:00:57.000Z</time>
    </trkpt>
    <trkpt lat="43.207941" lon="-1.526223">
      <ele>754</ele>
      <time>2026-01-12T09:01:16.000Z</time>
    </trkpt>
    <trkpt lat="43.20785" lon="-1.526507">
      <ele>754</ele>
      <time>2026-01-12T09:01:36.000Z</time>
    </trkpt>
    <trkpt lat="43.207771" lon="-1.526806">
      <ele>755</ele>
      <time>2026-01-12T09:01:55.000Z</time>
    </trkpt>
    <trkpt lat="43.207696" lon="-1.527103">
      <ele>756</ele>
      <time>2026-01-12T09:02:15.000Z</time>
    </trkpt>
    <trkpt lat="43.207661" lon="-1.527407">
      <ele>757</ele>
      <time>2026-01-12T09:02:34.000Z</time>
    </trkpt>
    <trkpt lat="43.207612" lon="-1.527715">
      <ele>757</ele>
      <time>2026-01-12T09:02:53.000Z</time>
    </trkpt>
    <trkpt lat="43.207572" lon="-1.528036">
      <ele>756</ele>
      <time>2026-01-12T09:03:13.000Z</time>
    </trkpt>
    <trkpt lat="43.207544" lon="-1.528353">
      <ele>756</ele>
      <time>2026-01-12T09:03:31.000Z</time>
    </trkpt>
    <trkpt lat="43.207542" lon="-1.528678">
      <ele>756</ele>
      <time>2026-01-12T09:03:50.000Z</time>
    </trkpt>
    <trkpt lat="43.207524" lon="-1.528996">
      <ele>758</ele>
      <time>2026-01-12T09:04:10.000Z</time>
    </trkpt>
    <trkpt lat="43.207496" lon="-1.529311">
      <ele>761</ele>
      <time>2026-01-12T09:04:31.000Z</time>
    </trkpt>
    <trkpt lat="43.207452" lon="-1.52962">
      <ele>766</ele>
      <time>2026-01-12T09:04:55.000Z</time>
    </trkpt>
    <trkpt lat="43.207392" lon="-1.529925">
      <ele>768</ele>
      <time>2026-01-12T09:05:17.000Z</time>
    </trkpt>
    <trkpt lat="43.207342" lon="-1.530237">
      <ele>772</ele>
      <time>2026-01-12T09:05:38.000Z</time>
    </trkpt>
    <trkpt lat="43.207287" lon="-1.53054">
      <ele>774</ele>
      <time>2026-01-12T09:06:00.000Z</time>
    </trkpt>
    <trkpt lat="43.207232" lon="-1.530852">
      <ele>777</ele>
      <time>2026-01-12T09:06:23.000Z</time>
    </trkpt>
    <trkpt lat="43.207176" lon="-1.531159">
      <ele>782</ele>
      <time>2026-01-12T09:06:49.000Z</time>
    </trkpt>
    <trkpt lat="43.207123" lon="-1.53146">
      <ele>790</ele>
      <time>2026-01-12T09:07:20.000Z</time>
    </trkpt>
    <trkpt lat="43.207076" lon="-1.531775">
      <ele>794</ele>
      <time>2026-01-12T09:07:46.000Z</time>
    </trkpt>
    <trkpt lat="43.207038" lon="-1.532088">
      <ele>798</ele>
      <time>2026-01-12T09:08:11.000Z</time>
    </trkpt>
    <trkpt lat="43.206932" lon="-1.532369">
      <ele>804</ele>
      <time>2026-01-12T09:11:43.000Z</time>
    </trkpt>
    <trkpt lat="43.206709" lon="-1.532484">
      <ele>803</ele>
      <time>2026-01-12T09:12:09.000Z</time>
    </trkpt>
    <trkpt lat="43.206496" lon="-1.532595">
      <ele>801</ele>
      <time>2026-01-12T09:12:29.000Z</time>
    </trkpt>
    <trkpt lat="43.206281" lon="-1.532719">
      <ele>800</ele>
      <time>2026-01-12T09:12:47.000Z</time>
    </trkpt>
    <trkpt lat="43.20606" lon="-1.532792">
      <ele>799</ele>
      <time>2026-01-12T09:13:05.000Z</time>
    </trkpt>
    <trkpt lat="43.205842" lon="-1.532879">
      <ele>800</ele>
      <time>2026-01-12T09:13:23.000Z</time>
    </trkpt>
    <trkpt lat="43.205623" lon="-1.532959">
      <ele>800</ele>
      <time>2026-01-12T09:13:42.000Z</time>
    </trkpt>
    <trkpt lat="43.205401" lon="-1.533045">
      <ele>799</ele>
      <time>2026-01-12T09:14:01.000Z</time>
    </trkpt>
    <trkpt lat="43.205179" lon="-1.53314">
      <ele>800</ele>
      <time>2026-01-12T09:14:20.000Z</time>
    </trkpt>
    <trkpt lat="43.204957" lon="-1.533225">
      <ele>802</ele>
      <time>2026-01-12T09:14:41.000Z</time>
    </trkpt>
    <trkpt lat="43.204741" lon="-1.533337">
      <ele>804</ele>
      <time>2026-01-12T09:15:03.000Z</time>
    </trkpt>
    <trkpt lat="43.204521" lon="-1.533435">
      <ele>803</ele>
      <time>2026-01-12T09:15:23.000Z</time>
    </trkpt>
    <trkpt lat="43.204289" lon="-1.53348">
      <ele>805</ele>
      <time>2026-01-12T09:15:43.000Z</time>
    </trkpt>
    <trkpt lat="43.204065" lon="-1.533571">
      <ele>805</ele>
      <time>2026-01-12T09:16:06.000Z</time>
    </trkpt>
    <trkpt lat="43.203845" lon="-1.533667">
      <ele>808</ele>
      <time>2026-01-12T09:16:28.000Z</time>
    </trkpt>
    <trkpt lat="43.203629" lon="-1.533788">
      <ele>812</ele>
      <time>2026-01-12T09:16:50.000Z</time>
    </trkpt>
    <trkpt lat="43.203411" lon="-1.533872">
      <ele>815</ele>
      <time>2026-01-12T09:17:14.000Z</time>
    </trkpt>
    <trkpt lat="43.203187" lon="-1.533942">
      <ele>819</ele>
      <time>2026-01-12T09:17:37.000Z</time>
    </trkpt>
    <trkpt lat="43.202956" lon="-1.534007">
      <ele>822</ele>
      <time>2026-01-12T09:18:03.000Z</time>
    </trkpt>
    <trkpt lat="43.202726" lon="-1.533974">
      <ele>823</ele>
      <time>2026-01-12T09:18:24.000Z</time>
    </trkpt>
    <trkpt lat="43.202494" lon="-1.533936">
      <ele>824</ele>
      <time>2026-01-12T09:18:46.000Z</time>
    </trkpt>
    <trkpt lat="43.20227" lon="-1.533886">
      <ele>826</ele>
      <time>2026-01-12T09:19:07.000Z</time>
    </trkpt>
    <trkpt lat="43.202055" lon="-1.533785">
      <ele>827</ele>
      <time>2026-01-12T09:19:30.000Z</time>
    </trkpt>
    <trkpt lat="43.20184" lon="-1.533652">
      <ele>827</ele>
      <time>2026-01-12T09:19:49.000Z</time>
    </trkpt>
    <trkpt lat="43.201637" lon="-1.533498">
      <ele>828</ele>
      <time>2026-01-12T09:20:09.000Z</time>
    </trkpt>
    <trkpt lat="43.201409" lon="-1.533413">
      <ele>827</ele>
      <time>2026-01-12T09:20:31.000Z</time>
    </trkpt>
    <trkpt lat="43.201173" lon="-1.533415">
      <ele>825</ele>
      <time>2026-01-12T09:20:55.000Z</time>
    </trkpt>
    <trkpt lat="43.200942" lon="-1.533379">
      <ele>822</ele>
      <time>2026-01-12T09:21:44.000Z</time>
    </trkpt>
    <trkpt lat="43.200704" lon="-1.533399">
      <ele>817</ele>
      <time>2026-01-12T09:22:04.000Z</time>
    </trkpt>
    <trkpt lat="43.200479" lon="-1.533473">
      <ele>813</ele>
      <time>2026-01-12T09:22:26.000Z</time>
    </trkpt>
    <trkpt lat="43.200261" lon="-1.533547">
      <ele>808</ele>
      <time>2026-01-12T09:23:03.000Z</time>
    </trkpt>
    <trkpt lat="43.200041" lon="-1.533633">
      <ele>804</ele>
      <time>2026-01-12T09:23:21.000Z</time>
    </trkpt>
    <trkpt lat="43.199809" lon="-1.5337">
      <ele>800</ele>
      <time>2026-01-12T09:23:40.000Z</time>
    </trkpt>
    <trkpt lat="43.199581" lon="-1.533769">
      <ele>796</ele>
      <time>2026-01-12T09:23:59.000Z</time>
    </trkpt>
    <trkpt lat="43.199345" lon="-1.5338">
      <ele>794</ele>
      <time>2026-01-12T09:24:17.000Z</time>
    </trkpt>
    <trkpt lat="43.199112" lon="-1.53379">
      <ele>793</ele>
      <time>2026-01-12T09:24:36.000Z</time>
    </trkpt>
    <trkpt lat="43.198898" lon="-1.533695">
      <ele>790</ele>
      <time>2026-01-12T09:24:54.000Z</time>
    </trkpt>
    <trkpt lat="43.198677" lon="-1.533594">
      <ele>789</ele>
      <time>2026-01-12T09:25:13.000Z</time>
    </trkpt>
    <trkpt lat="43.198447" lon="-1.533603">
      <ele>790</ele>
      <time>2026-01-12T09:37:33.000Z</time>
    </trkpt>
    <trkpt lat="43.198216" lon="-1.533607">
      <ele>792</ele>
      <time>2026-01-12T09:37:56.000Z</time>
    </trkpt>
    <trkpt lat="43.197981" lon="-1.533549">
      <ele>797</ele>
      <time>2026-01-12T09:38:24.000Z</time>
    </trkpt>
    <trkpt lat="43.197751" lon="-1.533548">
      <ele>800</ele>
      <time>2026-01-12T09:38:47.000Z</time>
    </trkpt>
    <trkpt lat="43.19752" lon="-1.533567">
      <ele>801</ele>
      <time>2026-01-12T09:39:10.000Z</time>
    </trkpt>
    <trkpt lat="43.197287" lon="-1.533564">
      <ele>802</ele>
      <time>2026-01-12T09:39:31.000Z</time>
    </trkpt>
    <trkpt lat="43.197057" lon="-1.533583">
      <ele>801</ele>
      <time>2026-01-12T09:39:52.000Z</time>
    </trkpt>
    <trkpt lat="43.196833" lon="-1.533619">
      <ele>802</ele>
      <time>2026-01-12T09:40:12.000Z</time>
    </trkpt>
    <trkpt lat="43.196601" lon="-1.533633">
      <ele>804</ele>
      <time>2026-01-12T09:40:34.000Z</time>
    </trkpt>
    <trkpt lat="43.196367" lon="-1.533651">
      <ele>805</ele>
      <time>2026-01-12T09:40:57.000Z</time>
    </trkpt>
    <trkpt lat="43.196142" lon="-1.533657">
      <ele>807</ele>
      <time>2026-01-12T09:41:18.000Z</time>
    </trkpt>
    <trkpt lat="43.195915" lon="-1.533658">
      <ele>808</ele>
      <time>2026-01-12T09:41:38.000Z</time>
    </trkpt>
    <trkpt lat="43.195683" lon="-1.533671">
      <ele>810</ele>
      <time>2026-01-12T09:42:00.000Z</time>
    </trkpt>
    <trkpt lat="43.195454" lon="-1.533641">
      <ele>814</ele>
      <time>2026-01-12T09:42:24.000Z</time>
    </trkpt>
    <trkpt lat="43.19523" lon="-1.533614">
      <ele>817</ele>
      <time>2026-01-12T09:42:48.000Z</time>
    </trkpt>
    <trkpt lat="43.195003" lon="-1.533561">
      <ele>819</ele>
      <time>2026-01-12T09:43:10.000Z</time>
    </trkpt>
    <trkpt lat="43.194776" lon="-1.533499">
      <ele>820</ele>
      <time>2026-01-12T09:43:32.000Z</time>
    </trkpt>
    <trkpt lat="43.194545" lon="-1.533493">
      <ele>821</ele>
      <time>2026-01-12T09:43:55.000Z</time>
    </trkpt>
    <trkpt lat="43.194316" lon="-1.53345">
      <ele>824</ele>
      <time>2026-01-12T09:44:17.000Z</time>
    </trkpt>
    <trkpt lat="43.194087" lon="-1.533363">
      <ele>829</ele>
      <time>2026-01-12T09:44:44.000Z</time>
    </trkpt>
    <trkpt lat="43.19387" lon="-1.53328">
      <ele>835</ele>
      <time>2026-01-12T09:45:13.000Z</time>
    </trkpt>
    <trkpt lat="43.193641" lon="-1.533244">
      <ele>841</ele>
      <time>2026-01-12T09:45:43.000Z</time>
    </trkpt>
    <trkpt lat="43.193411" lon="-1.533258">
      <ele>846</ele>
      <time>2026-01-12T09:46:12.000Z</time>
    </trkpt>
    <trkpt lat="43.193196" lon="-1.533353">
      <ele>849</ele>
      <time>2026-01-12T09:46:39.000Z</time>
    </trkpt>
    <trkpt lat="43.19298" lon="-1.53344">
      <ele>852</ele>
      <time>2026-01-12T09:50:33.000Z</time>
    </trkpt>
    <trkpt lat="43.192746" lon="-1.533494">
      <ele>849</ele>
      <time>2026-01-12T09:50:59.000Z</time>
    </trkpt>
    <trkpt lat="43.192519" lon="-1.533475">
      <ele>846</ele>
      <time>2026-01-12T09:51:20.000Z</time>
    </trkpt>
    <trkpt lat="43.192288" lon="-1.533488">
      <ele>840</ele>
      <time>2026-01-12T09:51:44.000Z</time>
    </trkpt>
    <trkpt lat="43.192087" lon="-1.533336">
      <ele>833</ele>
      <time>2026-01-12T09:52:09.000Z</time>
    </trkpt>
    <trkpt lat="43.191896" lon="-1.533158">
      <ele>826</ele>
      <time>2026-01-12T09:52:34.000Z</time>
    </trkpt>
    <trkpt lat="43.191707" lon="-1.532976">
      <ele>822</ele>
      <time>2026-01-12T09:52:55.000Z</time>
    </trkpt>
    <trkpt lat="43.191498" lon="-1.532838">
      <ele>817</ele>
      <time>2026-01-12T09:53:15.000Z</time>
    </trkpt>
    <trkpt lat="43.191288" lon="-1.532718">
      <ele>810</ele>
      <time>2026-01-12T09:53:40.000Z</time>
    </trkpt>
    <trkpt lat="43.191061" lon="-1.53263">
      <ele>805</ele>
      <time>2026-01-12T09:54:03.000Z</time>
    </trkpt>
    <trkpt lat="43.190856" lon="-1.532483">
      <ele>799</ele>
      <time>2026-01-12T09:54:26.000Z</time>
    </trkpt>
    <trkpt lat="43.190681" lon="-1.532276">
      <ele>797</ele>
      <time>2026-01-12T09:54:45.000Z</time>
    </trkpt>
    <trkpt lat="43.190471" lon="-1.532137">
      <ele>794</ele>
      <time>2026-01-12T09:55:05.000Z</time>
    </trkpt>
    <trkpt lat="43.190281" lon="-1.531952">
      <ele>792</ele>
      <time>2026-01-12T09:55:24.000Z</time>
    </trkpt>
    <trkpt lat="43.190078" lon="-1.531804">
      <ele>788</ele>
      <time>2026-01-12T09:55:43.000Z</time>
    </trkpt>
    <trkpt lat="43.189867" lon="-1.531673">
      <ele>785</ele>
      <time>2026-01-12T09:56:03.000Z</time>
    </trkpt>
    <trkpt lat="43.189643" lon="-1.531607">
      <ele>781</ele>
      <time>2026-01-12T09:56:22.000Z</time>
    </trkpt>
    <trkpt lat="43.189416" lon="-1.531536">
      <ele>780</ele>
      <time>2026-01-12T09:56:41.000Z</time>
    </trkpt>
    <trkpt lat="43.189192" lon="-1.53145">
      <ele>778</ele>
      <time>2026-01-12T09:57:00.000Z</time>
    </trkpt>
    <trkpt lat="43.188961" lon="-1.531388">
      <ele>777</ele>
      <time>2026-01-12T09:57:22.000Z</time>
    </trkpt>
    <trkpt lat="43.188743" lon="-1.531307">
      <ele>779</ele>
      <time>2026-01-12T09:57:40.000Z</time>
    </trkpt>
    <trkpt lat="43.188511" lon="-1.531275">
      <ele>779</ele>
      <time>2026-01-12T09:58:00.000Z</time>
    </trkpt>
    <trkpt lat="43.188279" lon="-1.531212">
      <ele>777</ele>
      <time>2026-01-12T09:58:22.000Z</time>
    </trkpt>
    <trkpt lat="43.188052" lon="-1.531155">
      <ele>772</ele>
      <time>2026-01-12T09:58:45.000Z</time>
    </trkpt>
    <trkpt lat="43.187831" lon="-1.531088">
      <ele>766</ele>
      <time>2026-01-12T09:59:09.000Z</time>
    </trkpt>
    <trkpt lat="43.187617" lon="-1.530989">
      <ele>759</ele>
      <time>2026-01-12T09:59:35.000Z</time>
    </trkpt>
    <trkpt lat="43.187407" lon="-1.530875">
      <ele>750</ele>
      <time>2026-01-12T10:00:03.000Z</time>
    </trkpt>
    <trkpt lat="43.187181" lon="-1.530794">
      <ele>744</ele>
      <time>2026-01-12T10:00:28.000Z</time>
    </trkpt>
    <trkpt lat="43.186976" lon="-1.530645">
      <ele>744</ele>
      <time>2026-01-12T10:00:49.000Z</time>
    </trkpt>
    <trkpt lat="43.18677" lon="-1.530502">
      <ele>749</ele>
      <time>2026-01-12T10:01:12.000Z</time>
    </trkpt>
    <trkpt lat="43.186566" lon="-1.53036">
      <ele>756</ele>
      <time>2026-01-12T10:01:42.000Z</time>
    </trkpt>
    <trkpt lat="43.186363" lon="-1.530226">
      <ele>764</ele>
      <time>2026-01-12T10:02:22.000Z</time>
    </trkpt>
    <trkpt lat="43.186128" lon="-1.530211">
      <ele>767</ele>
      <time>2026-01-12T10:02:53.000Z</time>
    </trkpt>
    <trkpt lat="43.185907" lon="-1.530151">
      <ele>772</ele>
      <time>2026-01-12T10:03:20.000Z</time>
    </trkpt>
    <trkpt lat="43.185702" lon="-1.530003">
      <ele>776</ele>
      <time>2026-01-12T10:03:45.000Z</time>
    </trkpt>
    <trkpt lat="43.185501" lon="-1.52984">
      <ele>778</ele>
      <time>2026-01-12T10:04:22.000Z</time>
    </trkpt>
    <trkpt lat="43.1853" lon="-1.529699">
      <ele>780</ele>
      <time>2026-01-12T10:04:42.000Z</time>
    </trkpt>
    <trkpt lat="43.185098" lon="-1.529535">
      <ele>784</ele>
      <time>2026-01-12T10:05:07.000Z</time>
    </trkpt>
    <trkpt lat="43.184894" lon="-1.529407">
      <ele>789</ele>
      <time>2026-01-12T10:05:34.000Z</time>
    </trkpt>
    <trkpt lat="43.184759" lon="-1.529147">
      <ele>798</ele>
      <time>2026-01-12T10:06:20.000Z</time>
    </trkpt>
    <trkpt lat="43.184582" lon="-1.528947">
      <ele>803</ele>
      <time>2026-01-12T10:07:01.000Z</time>
    </trkpt>
    <trkpt lat="43.184393" lon="-1.528758">
      <ele>807</ele>
      <time>2026-01-12T10:07:31.000Z</time>
    </trkpt>
    <trkpt lat="43.184487" lon="-1.528475">
      <ele>812</ele>
      <time>2026-01-12T10:08:06.000Z</time>
    </trkpt>
    <trkpt lat="43.184707" lon="-1.528395">
      <ele>816</ele>
      <time>2026-01-12T10:08:42.000Z</time>
    </trkpt>
    <trkpt lat="43.184926" lon="-1.528478">
      <ele>821</ele>
      <time>2026-01-12T10:09:22.000Z</time>
    </trkpt>
    <trkpt lat="43.185002" lon="-1.528185">
      <ele>821</ele>
      <time>2026-01-12T10:18:21.000Z</time>
    </trkpt>
    <trkpt lat="43.185046" lon="-1.527876">
      <ele>815</ele>
      <time>2026-01-12T10:18:52.000Z</time>
    </trkpt>
    <trkpt lat="43.185014" lon="-1.527569">
      <ele>807</ele>
      <time>2026-01-12T10:20:14.000Z</time>
    </trkpt>
    <trkpt lat="43.185241" lon="-1.527535">
      <ele>806</ele>
      <time>2026-01-12T10:20:53.000Z</time>
    </trkpt>
    <trkpt lat="43.185421" lon="-1.527721">
      <ele>805</ele>
      <time>2026-01-12T10:21:18.000Z</time>
    </trkpt>
    <trkpt lat="43.185534" lon="-1.527988">
      <ele>799</ele>
      <time>2026-01-12T10:21:53.000Z</time>
    </trkpt>
    <trkpt lat="43.185607" lon="-1.528291">
      <ele>796</ele>
      <time>2026-01-12T10:22:27.000Z</time>
    </trkpt>
    <trkpt lat="43.185627" lon="-1.528612">
      <ele>793</ele>
      <time>2026-01-12T10:23:02.000Z</time>
    </trkpt>
    <trkpt lat="43.185726" lon="-1.528894">
      <ele>790</ele>
      <time>2026-01-12T10:23:37.000Z</time>
    </trkpt>
    <trkpt lat="43.185755" lon="-1.529206">
      <ele>784</ele>
      <time>2026-01-12T10:24:09.000Z</time>
    </trkpt>
    <trkpt lat="43.185817" lon="-1.529508">
      <ele>782</ele>
      <time>2026-01-12T10:24:38.000Z</time>
    </trkpt>
    <trkpt lat="43.185964" lon="-1.52975">
      <ele>779</ele>
      <time>2026-01-12T10:25:03.000Z</time>
    </trkpt>
    <trkpt lat="43.186181" lon="-1.529908">
      <ele>772</ele>
      <time>2026-01-12T10:25:34.000Z</time>
    </trkpt>
    <trkpt lat="43.18641" lon="-1.529908">
      <ele>765</ele>
      <time>2026-01-12T10:26:10.000Z</time>
    </trkpt>
    <trkpt lat="43.186581" lon="-1.530121">
      <ele>759</ele>
      <time>2026-01-12T10:26:40.000Z</time>
    </trkpt>
    <trkpt lat="43.186767" lon="-1.530303">
      <ele>753</ele>
      <time>2026-01-12T10:27:13.000Z</time>
    </trkpt>
    <trkpt lat="43.186965" lon="-1.530455">
      <ele>748</ele>
      <time>2026-01-12T10:27:36.000Z</time>
    </trkpt>
    <trkpt lat="43.187135" lon="-1.530672">
      <ele>745</ele>
      <time>2026-01-12T10:27:59.000Z</time>
    </trkpt>
    <trkpt lat="43.186971" lon="-1.530448">
      <ele>747</ele>
      <time>2026-01-12T10:29:39.000Z</time>
    </trkpt>
    <trkpt lat="43.186775" lon="-1.530273">
      <ele>752</ele>
      <time>2026-01-12T10:30:02.000Z</time>
    </trkpt>
    <trkpt lat="43.186596" lon="-1.530082">
      <ele>758</ele>
      <time>2026-01-12T10:30:30.000Z</time>
    </trkpt>
    <trkpt lat="43.186444" lon="-1.529856">
      <ele>763</ele>
      <time>2026-01-12T10:30:58.000Z</time>
    </trkpt>
    <trkpt lat="43.18622" lon="-1.529826">
      <ele>771</ele>
      <time>2026-01-12T10:31:57.000Z</time>
    </trkpt>
    <trkpt lat="43.186023" lon="-1.529658">
      <ele>777</ele>
      <time>2026-01-12T10:33:20.000Z</time>
    </trkpt>
    <trkpt lat="43.186227" lon="-1.529803">
      <ele>772</ele>
      <time>2026-01-12T10:34:54.000Z</time>
    </trkpt>
    <trkpt lat="43.186436" lon="-1.52992">
      <ele>764</ele>
      <time>2026-01-12T10:35:30.000Z</time>
    </trkpt>
    <trkpt lat="43.186616" lon="-1.530122">
      <ele>758</ele>
      <time>2026-01-12T10:36:05.000Z</time>
    </trkpt>
    <trkpt lat="43.186798" lon="-1.530312">
      <ele>751</ele>
      <time>2026-01-12T10:36:43.000Z</time>
    </trkpt>
    <trkpt lat="43.18698" lon="-1.530511">
      <ele>746</ele>
      <time>2026-01-12T10:37:11.000Z</time>
    </trkpt>
    <trkpt lat="43.187158" lon="-1.530701">
      <ele>745</ele>
      <time>2026-01-12T10:37:34.000Z</time>
    </trkpt>
    <trkpt lat="43.187242" lon="-1.53099">
      <ele>745</ele>
      <time>2026-01-12T10:38:27.000Z</time>
    </trkpt>
    <trkpt lat="43.187274" lon="-1.531311">
      <ele>746</ele>
      <time>2026-01-12T10:38:49.000Z</time>
    </trkpt>
    <trkpt lat="43.187306" lon="-1.531622">
      <ele>749</ele>
      <time>2026-01-12T10:39:09.000Z</time>
    </trkpt>
    <trkpt lat="43.187413" lon="-1.531908">
      <ele>752</ele>
      <time>2026-01-12T10:39:30.000Z</time>
    </trkpt>
    <trkpt lat="43.187566" lon="-1.532153">
      <ele>753</ele>
      <time>2026-01-12T10:39:52.000Z</time>
    </trkpt>
    <trkpt lat="43.187753" lon="-1.53235">
      <ele>753</ele>
      <time>2026-01-12T10:40:13.000Z</time>
    </trkpt>
    <trkpt lat="43.187944" lon="-1.532524">
      <ele>752</ele>
      <time>2026-01-12T10:40:34.000Z</time>
    </trkpt>
    <trkpt lat="43.18814" lon="-1.532698">
      <ele>753</ele>
      <time>2026-01-12T10:41:00.000Z</time>
    </trkpt>
    <trkpt lat="43.188352" lon="-1.532833">
      <ele>754</ele>
      <time>2026-01-12T10:41:19.000Z</time>
    </trkpt>
    <trkpt lat="43.18858" lon="-1.532805">
      <ele>756</ele>
      <time>2026-01-12T10:41:39.000Z</time>
    </trkpt>
    <trkpt lat="43.188815" lon="-1.532804">
      <ele>757</ele>
      <time>2026-01-12T10:42:01.000Z</time>
    </trkpt>
    <trkpt lat="43.189036" lon="-1.53286">
      <ele>757</ele>
      <time>2026-01-12T10:42:21.000Z</time>
    </trkpt>
    <trkpt lat="43.189265" lon="-1.53294">
      <ele>758</ele>
      <time>2026-01-12T10:42:41.000Z</time>
    </trkpt>
    <trkpt lat="43.189492" lon="-1.533028">
      <ele>762</ele>
      <time>2026-01-12T10:43:01.000Z</time>
    </trkpt>
    <trkpt lat="43.189719" lon="-1.533095">
      <ele>763</ele>
      <time>2026-01-12T10:43:22.000Z</time>
    </trkpt>
    <trkpt lat="43.189935" lon="-1.533209">
      <ele>766</ele>
      <time>2026-01-12T10:43:42.000Z</time>
    </trkpt>
    <trkpt lat="43.190131" lon="-1.533362">
      <ele>767</ele>
      <time>2026-01-12T10:44:02.000Z</time>
    </trkpt>
    <trkpt lat="43.190266" lon="-1.53362">
      <ele>770</ele>
      <time>2026-01-12T10:44:28.000Z</time>
    </trkpt>
    <trkpt lat="43.190345" lon="-1.533912">
      <ele>772</ele>
      <time>2026-01-12T10:44:50.000Z</time>
    </trkpt>
    <trkpt lat="43.190451" lon="-1.534195">
      <ele>774</ele>
      <time>2026-01-12T10:45:10.000Z</time>
    </trkpt>
    <trkpt lat="43.190602" lon="-1.534438">
      <ele>775</ele>
      <time>2026-01-12T10:45:33.000Z</time>
    </trkpt>
    <trkpt lat="43.190798" lon="-1.534608">
      <ele>779</ele>
      <time>2026-01-12T10:45:57.000Z</time>
    </trkpt>
    <trkpt lat="43.191001" lon="-1.534752">
      <ele>782</ele>
      <time>2026-01-12T10:46:21.000Z</time>
    </trkpt>
    <trkpt lat="43.191208" lon="-1.534903">
      <ele>786</ele>
      <time>2026-01-12T10:46:45.000Z</time>
    </trkpt>
    <trkpt lat="43.191417" lon="-1.535034">
      <ele>790</ele>
      <time>2026-01-12T10:47:09.000Z</time>
    </trkpt>
    <trkpt lat="43.191574" lon="-1.535257">
      <ele>794</ele>
      <time>2026-01-12T10:47:31.000Z</time>
    </trkpt>
    <trkpt lat="43.191736" lon="-1.535489">
      <ele>796</ele>
      <time>2026-01-12T10:47:54.000Z</time>
    </trkpt>
    <trkpt lat="43.191937" lon="-1.535631">
      <ele>798</ele>
      <time>2026-01-12T10:48:15.000Z</time>
    </trkpt>
    <trkpt lat="43.192162" lon="-1.535563">
      <ele>802</ele>
      <time>2026-01-12T10:48:41.000Z</time>
    </trkpt>
    <trkpt lat="43.192333" lon="-1.535349">
      <ele>809</ele>
      <time>2026-01-12T10:49:12.000Z</time>
    </trkpt>
    <trkpt lat="43.192504" lon="-1.535148">
      <ele>812</ele>
      <time>2026-01-12T10:49:35.000Z</time>
    </trkpt>
    <trkpt lat="43.192685" lon="-1.534959">
      <ele>815</ele>
      <time>2026-01-12T10:49:57.000Z</time>
    </trkpt>
    <trkpt lat="43.192888" lon="-1.534798">
      <ele>818</ele>
      <time>2026-01-12T10:50:20.000Z</time>
    </trkpt>
    <trkpt lat="43.193056" lon="-1.534584">
      <ele>820</ele>
      <time>2026-01-12T10:50:42.000Z</time>
    </trkpt>
    <trkpt lat="43.19325" lon="-1.534425">
      <ele>821</ele>
      <time>2026-01-12T10:51:02.000Z</time>
    </trkpt>
    <trkpt lat="43.193481" lon="-1.534391">
      <ele>818</ele>
      <time>2026-01-12T10:51:23.000Z</time>
    </trkpt>
    <trkpt lat="43.193705" lon="-1.534357">
      <ele>815</ele>
      <time>2026-01-12T10:51:46.000Z</time>
    </trkpt>
    <trkpt lat="43.193922" lon="-1.534243">
      <ele>811</ele>
      <time>2026-01-12T10:52:08.000Z</time>
    </trkpt>
    <trkpt lat="43.194135" lon="-1.534115">
      <ele>811</ele>
      <time>2026-01-12T10:52:27.000Z</time>
    </trkpt>
    <trkpt lat="43.194365" lon="-1.53403">
      <ele>809</ele>
      <time>2026-01-12T10:52:45.000Z</time>
    </trkpt>
    <trkpt lat="43.194602" lon="-1.534009">
      <ele>808</ele>
      <time>2026-01-12T10:53:04.000Z</time>
    </trkpt>
    <trkpt lat="43.194837" lon="-1.534033">
      <ele>805</ele>
      <time>2026-01-12T10:53:22.000Z</time>
    </trkpt>
    <trkpt lat="43.195062" lon="-1.534061">
      <ele>805</ele>
      <time>2026-01-12T10:53:39.000Z</time>
    </trkpt>
    <trkpt lat="43.195289" lon="-1.534126">
      <ele>803</ele>
      <time>2026-01-12T10:53:57.000Z</time>
    </trkpt>
    <trkpt lat="43.19551" lon="-1.534207">
      <ele>802</ele>
      <time>2026-01-12T10:54:15.000Z</time>
    </trkpt>
    <trkpt lat="43.195745" lon="-1.534244">
      <ele>801</ele>
      <time>2026-01-12T10:54:33.000Z</time>
    </trkpt>
    <trkpt lat="43.195978" lon="-1.534222">
      <ele>801</ele>
      <time>2026-01-12T10:54:51.000Z</time>
    </trkpt>
    <trkpt lat="43.196211" lon="-1.534205">
      <ele>799</ele>
      <time>2026-01-12T10:55:09.000Z</time>
    </trkpt>
    <trkpt lat="43.196447" lon="-1.534186">
      <ele>796</ele>
      <time>2026-01-12T10:55:28.000Z</time>
    </trkpt>
    <trkpt lat="43.196677" lon="-1.534157">
      <ele>794</ele>
      <time>2026-01-12T10:55:47.000Z</time>
    </trkpt>
    <trkpt lat="43.196911" lon="-1.534115">
      <ele>793</ele>
      <time>2026-01-12T10:56:06.000Z</time>
    </trkpt>
    <trkpt lat="43.197148" lon="-1.534086">
      <ele>791</ele>
      <time>2026-01-12T10:56:25.000Z</time>
    </trkpt>
    <trkpt lat="43.197382" lon="-1.5341">
      <ele>792</ele>
      <time>2026-01-12T10:56:43.000Z</time>
    </trkpt>
    <trkpt lat="43.197615" lon="-1.534106">
      <ele>791</ele>
      <time>2026-01-12T10:57:02.000Z</time>
    </trkpt>
    <trkpt lat="43.197845" lon="-1.534069">
      <ele>789</ele>
      <time>2026-01-12T10:57:21.000Z</time>
    </trkpt>
    <trkpt lat="43.198078" lon="-1.534019">
      <ele>789</ele>
      <time>2026-01-12T10:57:40.000Z</time>
    </trkpt>
    <trkpt lat="43.198307" lon="-1.533974">
      <ele>790</ele>
      <time>2026-01-12T10:58:02.000Z</time>
    </trkpt>
    <trkpt lat="43.198467" lon="-1.533752">
      <ele>791</ele>
      <time>2026-01-12T10:58:19.000Z</time>
    </trkpt>
    <trkpt lat="43.198635" lon="-1.533546">
      <ele>792</ele>
      <time>2026-01-12T10:59:02.000Z</time>
    </trkpt>
    <trkpt lat="43.198863" lon="-1.533471">
      <ele>790</ele>
      <time>2026-01-12T10:59:41.000Z</time>
    </trkpt>
    <trkpt lat="43.199088" lon="-1.533388">
      <ele>787</ele>
      <time>2026-01-12T11:00:05.000Z</time>
    </trkpt>
    <trkpt lat="43.19929" lon="-1.533245">
      <ele>787</ele>
      <time>2026-01-12T11:00:26.000Z</time>
    </trkpt>
    <trkpt lat="43.199421" lon="-1.532979">
      <ele>787</ele>
      <time>2026-01-12T11:00:47.000Z</time>
    </trkpt>
    <trkpt lat="43.199512" lon="-1.532692">
      <ele>785</ele>
      <time>2026-01-12T11:01:06.000Z</time>
    </trkpt>
    <trkpt lat="43.199601" lon="-1.532394">
      <ele>782</ele>
      <time>2026-01-12T11:01:49.000Z</time>
    </trkpt>
    <trkpt lat="43.199736" lon="-1.532133">
      <ele>782</ele>
      <time>2026-01-12T11:02:09.000Z</time>
    </trkpt>
    <trkpt lat="43.199878" lon="-1.531881">
      <ele>782</ele>
      <time>2026-01-12T11:02:31.000Z</time>
    </trkpt>
    <trkpt lat="43.200018" lon="-1.531635">
      <ele>781</ele>
      <time>2026-01-12T11:02:51.000Z</time>
    </trkpt>
    <trkpt lat="43.20013" lon="-1.531355">
      <ele>780</ele>
      <time>2026-01-12T11:03:11.000Z</time>
    </trkpt>
    <trkpt lat="43.200166" lon="-1.531038">
      <ele>778</ele>
      <time>2026-01-12T11:03:31.000Z</time>
    </trkpt>
    <trkpt lat="43.200209" lon="-1.530718">
      <ele>777</ele>
      <time>2026-01-12T11:03:50.000Z</time>
    </trkpt>
    <trkpt lat="43.200245" lon="-1.530408">
      <ele>775</ele>
      <time>2026-01-12T11:04:10.000Z</time>
    </trkpt>
    <trkpt lat="43.200249" lon="-1.530089">
      <ele>774</ele>
      <time>2026-01-12T11:04:29.000Z</time>
    </trkpt>
    <trkpt lat="43.200185" lon="-1.529779">
      <ele>772</ele>
      <time>2026-01-12T11:04:48.000Z</time>
    </trkpt>
    <trkpt lat="43.200076" lon="-1.529498">
      <ele>771</ele>
      <time>2026-01-12T11:05:07.000Z</time>
    </trkpt>
    <trkpt lat="43.200307" lon="-1.529422">
      <ele>777</ele>
      <time>2026-01-12T11:06:03.000Z</time>
    </trkpt>
    <trkpt lat="43.200535" lon="-1.529475">
      <ele>776</ele>
      <time>2026-01-12T11:06:31.000Z</time>
    </trkpt>
    <trkpt lat="43.200732" lon="-1.529663">
      <ele>777</ele>
      <time>2026-01-12T11:06:56.000Z</time>
    </trkpt>
    <trkpt lat="43.20095" lon="-1.52979">
      <ele>773</ele>
      <time>2026-01-12T11:07:20.000Z</time>
    </trkpt>
    <trkpt lat="43.201181" lon="-1.529829">
      <ele>769</ele>
      <time>2026-01-12T11:07:43.000Z</time>
    </trkpt>
    <trkpt lat="43.201411" lon="-1.529837">
      <ele>764</ele>
      <time>2026-01-12T11:08:13.000Z</time>
    </trkpt>
    <trkpt lat="43.201452" lon="-1.530142">
      <ele>766</ele>
      <time>2026-01-12T11:08:52.000Z</time>
    </trkpt>
    <trkpt lat="43.201431" lon="-1.530455">
      <ele>772</ele>
      <time>2026-01-12T11:09:19.000Z</time>
    </trkpt>
    <trkpt lat="43.20142" lon="-1.530768">
      <ele>772</ele>
      <time>2026-01-12T11:09:44.000Z</time>
    </trkpt>
    <trkpt lat="43.201502" lon="-1.531058">
      <ele>778</ele>
      <time>2026-01-12T11:10:08.000Z</time>
    </trkpt>
    <trkpt lat="43.201673" lon="-1.53126">
      <ele>774</ele>
      <time>2026-01-12T11:11:02.000Z</time>
    </trkpt>
    <trkpt lat="43.201834" lon="-1.531493">
      <ele>773</ele>
      <time>2026-01-12T11:11:39.000Z</time>
    </trkpt>
    <trkpt lat="43.20201" lon="-1.531704">
      <ele>773</ele>
      <time>2026-01-12T11:12:03.000Z</time>
    </trkpt>
    <trkpt lat="43.202166" lon="-1.53193">
      <ele>771</ele>
      <time>2026-01-12T11:12:27.000Z</time>
    </trkpt>
    <trkpt lat="43.202319" lon="-1.532163">
      <ele>771</ele>
      <time>2026-01-12T11:12:48.000Z</time>
    </trkpt>
    <trkpt lat="43.202529" lon="-1.532293">
      <ele>774</ele>
      <time>2026-01-12T11:38:47.000Z</time>
    </trkpt>
    <trkpt lat="43.202753" lon="-1.53231">
      <ele>773</ele>
      <time>2026-01-12T11:39:11.000Z</time>
    </trkpt>
    <trkpt lat="43.202973" lon="-1.532399">
      <ele>772</ele>
      <time>2026-01-12T11:39:36.000Z</time>
    </trkpt>
    <trkpt lat="43.203195" lon="-1.532476">
      <ele>770</ele>
      <time>2026-01-12T11:39:58.000Z</time>
    </trkpt>
    <trkpt lat="43.203421" lon="-1.532487">
      <ele>771</ele>
      <time>2026-01-12T11:40:19.000Z</time>
    </trkpt>
    <trkpt lat="43.203655" lon="-1.532404">
      <ele>767</ele>
      <time>2026-01-12T11:40:39.000Z</time>
    </trkpt>
    <trkpt lat="43.203846" lon="-1.53224">
      <ele>769</ele>
      <time>2026-01-12T11:40:57.000Z</time>
    </trkpt>
    <trkpt lat="43.204044" lon="-1.532077">
      <ele>768</ele>
      <time>2026-01-12T11:41:15.000Z</time>
    </trkpt>
    <trkpt lat="43.204237" lon="-1.531915">
      <ele>763</ele>
      <time>2026-01-12T11:41:36.000Z</time>
    </trkpt>
    <trkpt lat="43.204443" lon="-1.531768">
      <ele>763</ele>
      <time>2026-01-12T11:41:55.000Z</time>
    </trkpt>
    <trkpt lat="43.204658" lon="-1.531646">
      <ele>765</ele>
      <time>2026-01-12T11:42:14.000Z</time>
    </trkpt>
    <trkpt lat="43.204878" lon="-1.531732">
      <ele>762</ele>
      <time>2026-01-12T11:42:33.000Z</time>
    </trkpt>
    <trkpt lat="43.205091" lon="-1.531616">
      <ele>766</ele>
      <time>2026-01-12T11:42:53.000Z</time>
    </trkpt>
    <trkpt lat="43.205271" lon="-1.531418">
      <ele>764</ele>
      <time>2026-01-12T11:43:13.000Z</time>
    </trkpt>
    <trkpt lat="43.20547" lon="-1.531265">
      <ele>764</ele>
      <time>2026-01-12T11:43:33.000Z</time>
    </trkpt>
    <trkpt lat="43.205704" lon="-1.531214">
      <ele>763</ele>
      <time>2026-01-12T11:43:52.000Z</time>
    </trkpt>
    <trkpt lat="43.205936" lon="-1.53118">
      <ele>764</ele>
      <time>2026-01-12T11:44:11.000Z</time>
    </trkpt>
    <trkpt lat="43.206112" lon="-1.530976">
      <ele>766</ele>
      <time>2026-01-12T11:44:30.000Z</time>
    </trkpt>
    <trkpt lat="43.206313" lon="-1.530809">
      <ele>767</ele>
      <time>2026-01-12T11:44:50.000Z</time>
    </trkpt>
    <trkpt lat="43.206518" lon="-1.53068">
      <ele>768</ele>
      <time>2026-01-12T11:45:09.000Z</time>
    </trkpt>
    <trkpt lat="43.206723" lon="-1.530542">
      <ele>770</ele>
      <time>2026-01-12T11:45:28.000Z</time>
    </trkpt>
    <trkpt lat="43.206854" lon="-1.530277">
      <ele>769</ele>
      <time>2026-01-12T11:45:48.000Z</time>
    </trkpt>
    <trkpt lat="43.206922" lon="-1.529976">
      <ele>767</ele>
      <time>2026-01-12T11:46:07.000Z</time>
    </trkpt>
    <trkpt lat="43.206948" lon="-1.529656">
      <ele>765</ele>
      <time>2026-01-12T11:46:25.000Z</time>
    </trkpt>
    <trkpt lat="43.207058" lon="-1.529368">
      <ele>762</ele>
      <time>2026-01-12T11:46:43.000Z</time>
    </trkpt>
    <trkpt lat="43.207215" lon="-1.529134">
      <ele>760</ele>
      <time>2026-01-12T11:47:00.000Z</time>
    </trkpt>
    <trkpt lat="43.207362" lon="-1.528886">
      <ele>758</ele>
      <time>2026-01-12T11:47:17.000Z</time>
    </trkpt>
    <trkpt lat="43.207478" lon="-1.528612">
      <ele>758</ele>
      <time>2026-01-12T11:47:35.000Z</time>
    </trkpt>
    <trkpt lat="43.20755" lon="-1.528312">
      <ele>758</ele>
      <time>2026-01-12T11:47:55.000Z</time>
    </trkpt>
    <trkpt lat="43.207559" lon="-1.527998">
      <ele>758</ele>
      <time>2026-01-12T11:48:16.000Z</time>
    </trkpt>
    <trkpt lat="43.20759" lon="-1.527688">
      <ele>758</ele>
      <time>2026-01-12T11:48:40.000Z</time>
    </trkpt>
    <trkpt lat="43.207647" lon="-1.52739">
      <ele>758</ele>
      <time>2026-01-12T11:49:00.000Z</time>
    </trkpt>
    <trkpt lat="43.207693" lon="-1.527081">
      <ele>756</ele>
      <time>2026-01-12T11:49:21.000Z</time>
    </trkpt>
    <trkpt lat="43.207761" lon="-1.526787">
      <ele>755</ele>
      <time>2026-01-12T11:49:44.000Z</time>
    </trkpt>
    <trkpt lat="43.20784" lon="-1.526488">
      <ele>755</ele>
      <time>2026-01-12T11:50:03.000Z</time>
    </trkpt>
    <trkpt lat="43.207936" lon="-1.52621">
      <ele>756</ele>
      <time>2026-01-12T11:50:22.000Z</time>
    </trkpt>
    <trkpt lat="43.208062" lon="-1.52594">
      <ele>755</ele>
      <time>2026-01-12T11:50:40.000Z</time>
    </trkpt>
    <trkpt lat="43.208221" lon="-1.525709">
      <ele>755</ele>
      <time>2026-01-12T11:50:58.000Z</time>
    </trkpt>
    <trkpt lat="43.208386" lon="-1.525478">
      <ele>754</ele>
      <time>2026-01-12T11:51:16.000Z</time>
    </trkpt>
    <trkpt lat="43.208513" lon="-1.525222">
      <ele>753</ele>
      <time>2026-01-12T11:51:33.000Z</time>
    </trkpt>
    <trkpt lat="43.208656" lon="-1.52496">
      <ele>754</ele>
      <time>2026-01-12T11:51:51.000Z</time>
    </trkpt>
    <trkpt lat="43.208786" lon="-1.524699">
      <ele>751</ele>
      <time>2026-01-12T11:52:10.000Z</time>
    </trkpt>
    <trkpt lat="43.208915" lon="-1.524447">
      <ele>753</ele>
      <time>2026-01-12T11:52:27.000Z</time>
    </trkpt>
    <trkpt lat="43.209063" lon="-1.524204">
      <ele>754</ele>
      <time>2026-01-12T11:52:44.000Z</time>
    </trkpt>
    <trkpt lat="43.209218" lon="-1.523965">
      <ele>753</ele>
      <time>2026-01-12T11:53:02.000Z</time>
    </trkpt>
    <trkpt lat="43.209361" lon="-1.523718">
      <ele>752</ele>
      <time>2026-01-12T11:53:20.000Z</time>
    </trkpt>
    <trkpt lat="43.209473" lon="-1.523437">
      <ele>748</ele>
      <time>2026-01-12T11:53:38.000Z</time>
    </trkpt>
    <trkpt lat="43.209534" lon="-1.523134">
      <ele>748</ele>
      <time>2026-01-12T11:53:55.000Z</time>
    </trkpt>
    <trkpt lat="43.209627" lon="-1.52284">
      <ele>747</ele>
      <time>2026-01-12T11:54:12.000Z</time>
    </trkpt>
    <trkpt lat="43.209731" lon="-1.522547">
      <ele>746</ele>
      <time>2026-01-12T11:54:29.000Z</time>
    </trkpt>
    <trkpt lat="43.209862" lon="-1.522293">
      <ele>745</ele>
      <time>2026-01-12T11:54:46.000Z</time>
    </trkpt>
    <trkpt lat="43.210021" lon="-1.52206">
      <ele>745</ele>
      <time>2026-01-12T11:55:03.000Z</time>
    </trkpt>
    <trkpt lat="43.210181" lon="-1.521842">
      <ele>744</ele>
      <time>2026-01-12T11:55:20.000Z</time>
    </trkpt>
    <trkpt lat="43.210307" lon="-1.521576">
      <ele>744</ele>
      <time>2026-01-12T11:55:38.000Z</time>
    </trkpt>
    <trkpt lat="43.210475" lon="-1.521368">
      <ele>742</ele>
      <time>2026-01-12T11:55:59.000Z</time>
    </trkpt>
    <trkpt lat="43.210665" lon="-1.5212">
      <ele>741</ele>
      <time>2026-01-12T11:56:20.000Z</time>
    </trkpt>
    <trkpt lat="43.210778" lon="-1.520931">
      <ele>740</ele>
      <time>2026-01-12T11:57:25.000Z</time>
    </trkpt>
    <trkpt lat="43.210932" lon="-1.520682">
      <ele>739</ele>
      <time>2026-01-12T11:57:45.000Z</time>
    </trkpt>
    <trkpt lat="43.211005" lon="-1.520376">
      <ele>738</ele>
      <time>2026-01-12T11:58:05.000Z</time>
    </trkpt>
    <trkpt lat="43.211024" lon="-1.520054">
      <ele>739</ele>
      <time>2026-01-12T11:58:25.000Z</time>
    </trkpt>
    <trkpt lat="43.210955" lon="-1.519753">
      <ele>740</ele>
      <time>2026-01-12T11:58:45.000Z</time>
    </trkpt>
    <trkpt lat="43.210854" lon="-1.519473">
      <ele>740</ele>
      <time>2026-01-12T11:59:06.000Z</time>
    </trkpt>
    <trkpt lat="43.210784" lon="-1.519178">
      <ele>740</ele>
      <time>2026-01-12T11:59:25.000Z</time>
    </trkpt>
    <trkpt lat="43.210729" lon="-1.518877">
      <ele>738</ele>
      <time>2026-01-12T11:59:44.000Z</time>
    </trkpt>
    <trkpt lat="43.210747" lon="-1.518563">
      <ele>739</ele>
      <time>2026-01-12T12:00:05.000Z</time>
    </trkpt>
    <trkpt lat="43.210816" lon="-1.518264">
      <ele>739</ele>
      <time>2026-01-12T12:00:25.000Z</time>
    </trkpt>
    <trkpt lat="43.210942" lon="-1.51799">
      <ele>739</ele>
      <time>2026-01-12T12:00:44.000Z</time>
    </trkpt>
    <trkpt lat="43.211146" lon="-1.517858">
      <ele>738</ele>
      <time>2026-01-12T12:01:02.000Z</time>
    </trkpt>
    <trkpt lat="43.211379" lon="-1.517809">
      <ele>739</ele>
      <time>2026-01-12T12:01:29.000Z</time>
    </trkpt>
    <trkpt lat="43.211617" lon="-1.517794">
      <ele>737</ele>
      <time>2026-01-12T12:01:48.000Z</time>
    </trkpt>
    <trkpt lat="43.211859" lon="-1.51779">
      <ele>739</ele>
      <time>2026-01-12T12:02:06.000Z</time>
    </trkpt>
    <trkpt lat="43.21208" lon="-1.517688">
      <ele>739</ele>
      <time>2026-01-12T12:02:25.000Z</time>
    </trkpt>
    <trkpt lat="43.21228" lon="-1.517514">
      <ele>740</ele>
      <time>2026-01-12T12:02:45.000Z</time>
    </trkpt>
    <trkpt lat="43.212442" lon="-1.517298">
      <ele>740</ele>
      <time>2026-01-12T12:03:03.000Z</time>
    </trkpt>
    <trkpt lat="43.212561" lon="-1.517031">
      <ele>744</ele>
      <time>2026-01-12T12:03:20.000Z</time>
    </trkpt>
    <trkpt lat="43.212617" lon="-1.516717">
      <ele>747</ele>
      <time>2026-01-12T12:03:38.000Z</time>
    </trkpt>
    <trkpt lat="43.212575" lon="-1.516403">
      <ele>749</ele>
      <time>2026-01-12T12:03:58.000Z</time>
    </trkpt>
    <trkpt lat="43.212608" lon="-1.516096">
      <ele>749</ele>
      <time>2026-01-12T12:04:17.000Z</time>
    </trkpt>
    <trkpt lat="43.21266" lon="-1.515781">
      <ele>751</ele>
      <time>2026-01-12T12:04:36.000Z</time>
    </trkpt>
    <trkpt lat="43.212805" lon="-1.515529">
      <ele>749</ele>
      <time>2026-01-12T12:04:55.000Z</time>
    </trkpt>
    <trkpt lat="43.212886" lon="-1.515236">
      <ele>749</ele>
      <time>2026-01-12T12:05:14.000Z</time>
    </trkpt>
    <trkpt lat="43.212871" lon="-1.514912">
      <ele>750</ele>
      <time>2026-01-12T12:05:32.000Z</time>
    </trkpt>
    <trkpt lat="43.212828" lon="-1.514593">
      <ele>752</ele>
      <time>2026-01-12T12:05:51.000Z</time>
    </trkpt>
    <trkpt lat="43.212793" lon="-1.514281">
      <ele>753</ele>
      <time>2026-01-12T12:06:09.000Z</time>
    </trkpt>
    <trkpt lat="43.212771" lon="-1.513957">
      <ele>753</ele>
      <time>2026-01-12T12:06:28.000Z</time>
    </trkpt>
    <trkpt lat="43.212804" lon="-1.513642">
      <ele>754</ele>
      <time>2026-01-12T12:06:46.000Z</time>
    </trkpt>
    <trkpt lat="43.212994" lon="-1.51346">
      <ele>752</ele>
      <time>2026-01-12T12:07:04.000Z</time>
    </trkpt>
    <trkpt lat="43.213188" lon="-1.513302">
      <ele>753</ele>
      <time>2026-01-12T12:07:22.000Z</time>
    </trkpt>
    <trkpt lat="43.213317" lon="-1.513034">
      <ele>753</ele>
      <time>2026-01-12T12:07:42.000Z</time>
    </trkpt>
    <trkpt lat="43.213316" lon="-1.512709">
      <ele>753</ele>
      <time>2026-01-12T12:08:01.000Z</time>
    </trkpt>
    <trkpt lat="43.213248" lon="-1.512411">
      <ele>755</ele>
      <time>2026-01-12T12:08:18.000Z</time>
    </trkpt>
    <trkpt lat="43.213189" lon="-1.512104">
      <ele>754</ele>
      <time>2026-01-12T12:08:36.000Z</time>
    </trkpt>
    <trkpt lat="43.213156" lon="-1.511784">
      <ele>754</ele>
      <time>2026-01-12T12:08:55.000Z</time>
    </trkpt>
    <trkpt lat="43.213141" lon="-1.511469">
      <ele>753</ele>
      <time>2026-01-12T12:09:15.000Z</time>
    </trkpt>
    <trkpt lat="43.213057" lon="-1.511175">
      <ele>755</ele>
      <time>2026-01-12T12:09:33.000Z</time>
    </trkpt>
    <trkpt lat="43.213118" lon="-1.510877">
      <ele>754</ele>
      <time>2026-01-12T12:09:52.000Z</time>
    </trkpt>
    <trkpt lat="43.213195" lon="-1.510581">
      <ele>754</ele>
      <time>2026-01-12T12:10:10.000Z</time>
    </trkpt>
    <trkpt lat="43.213201" lon="-1.510264">
      <ele>756</ele>
      <time>2026-01-12T12:10:28.000Z</time>
    </trkpt>
    <trkpt lat="43.213212" lon="-1.509941">
      <ele>757</ele>
      <time>2026-01-12T12:10:47.000Z</time>
    </trkpt>
    <trkpt lat="43.213193" lon="-1.509626">
      <ele>756</ele>
      <time>2026-01-12T12:11:07.000Z</time>
    </trkpt>
    <trkpt lat="43.213128" lon="-1.509317">
      <ele>756</ele>
      <time>2026-01-12T12:11:26.000Z</time>
    </trkpt>
    <trkpt lat="43.213145" lon="-1.509003">
      <ele>757</ele>
      <time>2026-01-12T12:11:45.000Z</time>
    </trkpt>
    <trkpt lat="43.213289" lon="-1.508765">
      <ele>754</ele>
      <time>2026-01-12T12:15:17.000Z</time>
    </trkpt>
    <trkpt lat="43.213447" lon="-1.508539">
      <ele>758</ele>
      <time>2026-01-12T12:15:38.000Z</time>
    </trkpt>
    <trkpt lat="43.213679" lon="-1.508507">
      <ele>762</ele>
      <time>2026-01-12T12:15:57.000Z</time>
    </trkpt>
    <trkpt lat="43.213885" lon="-1.508668">
      <ele>765</ele>
      <time>2026-01-12T12:16:20.000Z</time>
    </trkpt>
    <trkpt lat="43.214044" lon="-1.508903">
      <ele>767</ele>
      <time>2026-01-12T12:16:41.000Z</time>
    </trkpt>
    <trkpt lat="43.214181" lon="-1.509148">
      <ele>768</ele>
      <time>2026-01-12T12:17:02.000Z</time>
    </trkpt>
    <trkpt lat="43.214299" lon="-1.509414">
      <ele>769</ele>
      <time>2026-01-12T12:17:23.000Z</time>
    </trkpt>
    <trkpt lat="43.214422" lon="-1.50968">
      <ele>771</ele>
      <time>2026-01-12T12:17:45.000Z</time>
    </trkpt>
    <trkpt lat="43.214525" lon="-1.509965">
      <ele>772</ele>
      <time>2026-01-12T12:18:05.000Z</time>
    </trkpt>
    <trkpt lat="43.214663" lon="-1.510226">
      <ele>776</ele>
      <time>2026-01-12T12:18:25.000Z</time>
    </trkpt>
    <trkpt lat="43.214783" lon="-1.510488">
      <ele>775</ele>
      <time>2026-01-12T12:18:47.000Z</time>
    </trkpt>
    <trkpt lat="43.214919" lon="-1.510735">
      <ele>779</ele>
      <time>2026-01-12T12:19:10.000Z</time>
    </trkpt>
    <trkpt lat="43.215056" lon="-1.510981">
      <ele>782</ele>
      <time>2026-01-12T12:19:34.000Z</time>
    </trkpt>
    <trkpt lat="43.215237" lon="-1.511172">
      <ele>785</ele>
      <time>2026-01-12T12:19:56.000Z</time>
    </trkpt>
    <trkpt lat="43.215467" lon="-1.511187">
      <ele>787</ele>
      <time>2026-01-12T12:20:17.000Z</time>
    </trkpt>
    <trkpt lat="43.215658" lon="-1.510996">
      <ele>788</ele>
      <time>2026-01-12T12:20:39.000Z</time>
    </trkpt>
    <trkpt lat="43.215838" lon="-1.510808">
      <ele>788</ele>
      <time>2026-01-12T12:20:57.000Z</time>
    </trkpt>
    <trkpt lat="43.216033" lon="-1.510633">
      <ele>792</ele>
      <time>2026-01-12T12:21:16.000Z</time>
    </trkpt>
    <trkpt lat="43.216194" lon="-1.510413">
      <ele>792</ele>
      <time>2026-01-12T12:21:35.000Z</time>
    </trkpt>
    <trkpt lat="43.21631" lon="-1.510136">
      <ele>793</ele>
      <time>2026-01-12T12:21:54.000Z</time>
    </trkpt>
    <trkpt lat="43.216534" lon="-1.510045">
      <ele>794</ele>
      <time>2026-01-12T12:22:15.000Z</time>
    </trkpt>
    <trkpt lat="43.216761" lon="-1.510023">
      <ele>792</ele>
      <time>2026-01-12T12:22:32.000Z</time>
    </trkpt>
    <trkpt lat="43.216959" lon="-1.50987">
      <ele>792</ele>
      <time>2026-01-12T12:22:52.000Z</time>
    </trkpt>
    <trkpt lat="43.217156" lon="-1.509688">
      <ele>793</ele>
      <time>2026-01-12T12:23:12.000Z</time>
    </trkpt>
    <trkpt lat="43.217378" lon="-1.509597">
      <ele>797</ele>
      <time>2026-01-12T12:23:32.000Z</time>
    </trkpt>
    <trkpt lat="43.217538" lon="-1.509826">
      <ele>804</ele>
      <time>2026-01-12T12:24:06.000Z</time>
    </trkpt>
    <trkpt lat="43.217587" lon="-1.510127">
      <ele>808</ele>
      <time>2026-01-12T12:24:32.000Z</time>
    </trkpt>
    <trkpt lat="43.217758" lon="-1.510326">
      <ele>812</ele>
      <time>2026-01-12T12:24:58.000Z</time>
    </trkpt>
    <trkpt lat="43.21795" lon="-1.510492">
      <ele>815</ele>
      <time>2026-01-12T12:25:24.000Z</time>
    </trkpt>
    <trkpt lat="43.218162" lon="-1.510362">
      <ele>816</ele>
      <time>2026-01-12T12:26:43.000Z</time>
    </trkpt>
    <trkpt lat="43.218271" lon="-1.510084">
      <ele>818</ele>
      <time>2026-01-12T12:27:04.000Z</time>
    </trkpt>
    <trkpt lat="43.218409" lon="-1.509838">
      <ele>823</ele>
      <time>2026-01-12T12:27:30.000Z</time>
    </trkpt>
    <trkpt lat="43.218581" lon="-1.50963">
      <ele>830</ele>
      <time>2026-01-12T12:28:01.000Z</time>
    </trkpt>
    <trkpt lat="43.218719" lon="-1.50938">
      <ele>838</ele>
      <time>2026-01-12T12:28:32.000Z</time>
    </trkpt>
    <trkpt lat="43.218854" lon="-1.50913">
      <ele>845</ele>
      <time>2026-01-12T12:29:05.000Z</time>
    </trkpt>
    <trkpt lat="43.219017" lon="-1.508912">
      <ele>853</ele>
      <time>2026-01-12T12:29:41.000Z</time>
    </trkpt>
    <trkpt lat="43.219174" lon="-1.508679">
      <ele>861</ele>
      <time>2026-01-12T12:30:15.000Z</time>
    </trkpt>
    <trkpt lat="43.219316" lon="-1.508437">
      <ele>868</ele>
      <time>2026-01-12T12:30:49.000Z</time>
    </trkpt>
    <trkpt lat="43.219437" lon="-1.508173">
      <ele>875</ele>
      <time>2026-01-12T12:31:18.000Z</time>
    </trkpt>
    <trkpt lat="43.21954" lon="-1.507887">
      <ele>881</ele>
      <time>2026-01-12T12:31:47.000Z</time>
    </trkpt>
    <trkpt lat="43.219661" lon="-1.507617">
      <ele>889</ele>
      <time>2026-01-12T12:32:23.000Z</time>
    </trkpt>
    <trkpt lat="43.219714" lon="-1.507317">
      <ele>897</ele>
      <time>2026-01-12T12:33:04.000Z</time>
    </trkpt>
    <trkpt lat="43.219847" lon="-1.507063">
      <ele>909</ele>
      <time>2026-01-12T12:34:05.000Z</time>
    </trkpt>
    <trkpt lat="43.220041" lon="-1.507218">
      <ele>918</ele>
      <time>2026-01-12T12:34:43.000Z</time>
    </trkpt>
    <trkpt lat="43.220265" lon="-1.507146">
      <ele>927</ele>
      <time>2026-01-12T12:35:33.000Z</time>
    </trkpt>
    <trkpt lat="43.220462" lon="-1.507308">
      <ele>933</ele>
      <time>2026-01-12T12:36:04.000Z</time>
    </trkpt>
    <trkpt lat="43.220587" lon="-1.50705">
      <ele>927</ele>
      <time>2026-01-12T12:44:00.000Z</time>
    </trkpt>
    <trkpt lat="43.22077" lon="-1.506856">
      <ele>916</ele>
      <time>2026-01-12T12:44:41.000Z</time>
    </trkpt>
    <trkpt lat="43.220994" lon="-1.506925">
      <ele>916</ele>
      <time>2026-01-12T12:45:05.000Z</time>
    </trkpt>
    <trkpt lat="43.22122" lon="-1.506836">
      <ele>912</ele>
      <time>2026-01-12T12:45:59.000Z</time>
    </trkpt>
    <trkpt lat="43.221138" lon="-1.506544">
      <ele>898</ele>
      <time>2026-01-12T12:47:19.000Z</time>
    </trkpt>
    <trkpt lat="43.221133" lon="-1.506232">
      <ele>885</ele>
      <time>2026-01-12T12:50:57.000Z</time>
    </trkpt>
    <trkpt lat="43.221227" lon="-1.50595">
      <ele>865</ele>
      <time>2026-01-12T12:53:24.000Z</time>
    </trkpt>
    <trkpt lat="43.221213" lon="-1.505642">
      <ele>852</ele>
      <time>2026-01-12T12:55:01.000Z</time>
    </trkpt>
    <trkpt lat="43.221428" lon="-1.505528">
      <ele>841</ele>
      <time>2026-01-12T12:56:56.000Z</time>
    </trkpt>
    <trkpt lat="43.221638" lon="-1.505411">
      <ele>829</ele>
      <time>2026-01-12T12:57:42.000Z</time>
    </trkpt>
    <trkpt lat="43.22184" lon="-1.50527">
      <ele>819</ele>
      <time>2026-01-12T12:58:43.000Z</time>
    </trkpt>
    <trkpt lat="43.222068" lon="-1.50527">
      <ele>814</ele>
      <time>2026-01-12T12:59:36.000Z</time>
    </trkpt>
    <trkpt lat="43.222292" lon="-1.505305">
      <ele>808</ele>
      <time>2026-01-12T13:00:19.000Z</time>
    </trkpt>
    <trkpt lat="43.222518" lon="-1.505297">
      <ele>798</ele>
      <time>2026-01-12T13:01:35.000Z</time>
    </trkpt>
    <trkpt lat="43.222747" lon="-1.505219">
      <ele>790</ele>
      <time>2026-01-12T13:02:21.000Z</time>
    </trkpt>
    <trkpt lat="43.222974" lon="-1.505249">
      <ele>786</ele>
      <time>2026-01-12T13:02:45.000Z</time>
    </trkpt>
    <trkpt lat="43.223206" lon="-1.505199">
      <ele>778</ele>
      <time>2026-01-12T13:03:12.000Z</time>
    </trkpt>
    <trkpt lat="43.223438" lon="-1.505166">
      <ele>772</ele>
      <time>2026-01-12T13:03:36.000Z</time>
    </trkpt>
    <trkpt lat="43.223658" lon="-1.505089">
      <ele>768</ele>
      <time>2026-01-12T13:04:05.000Z</time>
    </trkpt>
    <trkpt lat="43.223878" lon="-1.50502">
      <ele>763</ele>
      <time>2026-01-12T13:06:26.000Z</time>
    </trkpt>
    <trkpt lat="43.224106" lon="-1.505041">
      <ele>760</ele>
      <time>2026-01-12T13:06:47.000Z</time>
    </trkpt>
    <trkpt lat="43.224338" lon="-1.504998">
      <ele>754</ele>
      <time>2026-01-12T13:07:15.000Z</time>
    </trkpt>
    <trkpt lat="43.224422" lon="-1.504705">
      <ele>752</ele>
      <time>2026-01-12T13:07:58.000Z</time>
    </trkpt>
    <trkpt lat="43.224612" lon="-1.504527">
      <ele>745</ele>
      <time>2026-01-12T13:08:53.000Z</time>
    </trkpt>
    <trkpt lat="43.224827" lon="-1.504425">
      <ele>736</ele>
      <time>2026-01-12T13:09:38.000Z</time>
    </trkpt>
    <trkpt lat="43.225044" lon="-1.504306">
      <ele>727</ele>
      <time>2026-01-12T13:10:12.000Z</time>
    </trkpt>
    <trkpt lat="43.225272" lon="-1.504257">
      <ele>721</ele>
      <time>2026-01-12T13:10:41.000Z</time>
    </trkpt>
    <trkpt lat="43.225495" lon="-1.504151">
      <ele>714</ele>
      <time>2026-01-12T13:11:10.000Z</time>
    </trkpt>
    <trkpt lat="43.225727" lon="-1.50416">
      <ele>707</ele>
      <time>2026-01-12T13:11:34.000Z</time>
    </trkpt>
    <trkpt lat="43.225954" lon="-1.504141">
      <ele>699</ele>
      <time>2026-01-12T13:12:01.000Z</time>
    </trkpt>
    <trkpt lat="43.226184" lon="-1.504137">
      <ele>694</ele>
      <time>2026-01-12T13:12:26.000Z</time>
    </trkpt>
    <trkpt lat="43.226399" lon="-1.504237">
      <ele>687</ele>
      <time>2026-01-12T13:12:52.000Z</time>
    </trkpt>
    <trkpt lat="43.226629" lon="-1.504217">
      <ele>679</ele>
      <time>2026-01-12T13:13:22.000Z</time>
    </trkpt>
    <trkpt lat="43.226849" lon="-1.504135">
      <ele>670</ele>
      <time>2026-01-12T13:13:53.000Z</time>
    </trkpt>
    <trkpt lat="43.22708" lon="-1.504145">
      <ele>660</ele>
      <time>2026-01-12T13:14:22.000Z</time>
    </trkpt>
    <trkpt lat="43.227311" lon="-1.504149">
      <ele>653</ele>
      <time>2026-01-12T13:14:52.000Z</time>
    </trkpt>
    <trkpt lat="43.227521" lon="-1.504022">
      <ele>644</ele>
      <time>2026-01-12T13:15:22.000Z</time>
    </trkpt>
    <trkpt lat="43.227747" lon="-1.504027">
      <ele>634</ele>
      <time>2026-01-12T13:15:50.000Z</time>
    </trkpt>
    <trkpt lat="43.227977" lon="-1.504003">
      <ele>625</ele>
      <time>2026-01-12T13:16:21.000Z</time>
    </trkpt>
    <trkpt lat="43.228206" lon="-1.503979">
      <ele>614</ele>
      <time>2026-01-12T13:16:55.000Z</time>
    </trkpt>
    <trkpt lat="43.228428" lon="-1.503874">
      <ele>604</ele>
      <time>2026-01-12T13:17:28.000Z</time>
    </trkpt>
    <trkpt lat="43.228654" lon="-1.50391">
      <ele>597</ele>
      <time>2026-01-12T13:17:55.000Z</time>
    </trkpt>
    <trkpt lat="43.228879" lon="-1.503963">
      <ele>593</ele>
      <time>2026-01-12T13:18:15.000Z</time>
    </trkpt>
    <trkpt lat="43.229072" lon="-1.503792">
      <ele>587</ele>
      <time>2026-01-12T13:18:37.000Z</time>
    </trkpt>
    <trkpt lat="43.229264" lon="-1.503609">
      <ele>582</ele>
      <time>2026-01-12T13:18:59.000Z</time>
    </trkpt>
    <trkpt lat="43.229436" lon="-1.503405">
      <ele>579</ele>
      <time>2026-01-12T13:19:20.000Z</time>
    </trkpt>
  </trkseg>
</trk></gpx>